Unicom:                    122.8

AWOS:                  118.275

Elevation           1458’ MSL

TPA:                   2500’ MSL

06/24:         5003’ L   75’ W

PAPI:       06/Left     24/Left

(Operate lights on unicom freq.)

Traffic Pattern: Left

Beacon: Sunset to Sunrise

Windsock: yes, lighted

Segmented Circle: No

 

Cleveland Center: 126.72/291.65

FSS: Altoona

[Source: ADDS]
METAR
KFKL 230056Z AUTO 27004KT 10SM CLR 12/08 A3011 RMK AO2 SLP203 T01220078 =
KFKL 222320Z 2300/2324 27003KT P6SM SCT120 FM230700 25004KT P6SM SKC FM231200 25004KT P6SM SKC FM231700 28007KT P6SM SCT025
TAF
KFKL 222320Z 2300/2324 27003KT P6SM SCT120 FM230700 25004KT P6SM SKC FM231200 25004KT P6SM SKC FM231700 28007KT P6SM SCT025 =
[Source: ADDS]
METAR
KDUJ 230053Z AUTO 26005KT 10SM CLR 13/06 A3008 RMK AO2 SLP190 T01330056 =
KDUJ 222320Z 2300/2324 29005KT P6SM SCT120 FM230700 26004KT P6SM SKC FM231700 28009KT P6SM SKC
TAF
KDUJ 222320Z 2300/2324 29005KT P6SM SCT120 FM230700 26004KT P6SM SKC FM231700 28009KT P6SM SKC =

Development areas as listed in the Pennsylvania Department of Transportation,

Bureau of Aviation Airport Properties Directory

 

Area 1 - 7 acre area for development needing access to runway 

Area 2 - 7 acre area for development not needing access to runway

There are several other Industrial Development areas available on the airport, and at other sites with easy access to the airport.

Please contact the Clarion County Airport Authority at (814) 226 - 9993, or manager@clarionairport.com

You can also contact the Clarion County Economic Development Corporation at (814) 226 - 9045.

 

Resourceful Links:

Clarion Chamber of Commerce https://www.clarionpa.com/

Clarion County Economic Development Corporation http://www.callclarionpa.com/